sensor_id;sensor_type;location;lat;lon;timestamp;P1;durP1;ratioP1;P2;durP2;ratioP2
22320;SDS011;11328;53.928;18.522;2022-10-31T00:01:23;35.78;;;26.45;;
22320;SDS011;11328;53.928;18.522;2022-10-31T00:03:59;35.22;;;26.00;;
22320;SDS011;11328;53.928;18.522;2022-10-31T00:06:27;37.25;;;24.23;;
22320;SDS011;11328;53.928;18.522;2022-10-31T00:08:58;37.72;;;24.33;;
22320;SDS011;11328;53.928;18.522;2022-10-31T00:11:28;35.60;;;24.08;;
22320;SDS011;11328;53.928;18.522;2022-10-31T00:13:56;47.40;;;26.40;;
22320;SDS011;11328;53.928;18.522;2022-10-31T00:16:25;51.85;;;25.88;;
22320;SDS011;11328;53.928;18.522;2022-10-31T00:18:55;45.47;;;26.60;;
22320;SDS011;11328;53.928;18.522;2022-10-31T00:21:26;46.80;;;28.23;;
22320;SDS011;11328;53.928;18.522;2022-10-31T00:23:54;52.30;;;29.73;;
22320;SDS011;11328;53.928;18.522;2022-10-31T00:26:21;43.90;;;28.65;;
22320;SDS011;11328;53.928;18.522;2022-10-31T00:28:48;47.20;;;30.92;;
22320;SDS011;11328;53.928;18.522;2022-10-31T00:31:15;56.25;;;32.45;;
22320;SDS011;11328;53.928;18.522;2022-10-31T00:33:42;49.25;;;32.70;;
22320;SDS011;11328;53.928;18.522;2022-10-31T00:36:11;53.53;;;31.50;;
22320;SDS011;11328;53.928;18.522;2022-10-31T00:38:41;47.88;;;31.27;;
22320;SDS011;11328;53.928;18.522;2022-10-31T00:41:09;50.38;;;31.90;;
22320;SDS011;11328;53.928;18.522;2022-10-31T00:43:38;51.47;;;31.38;;
22320;SDS011;11328;53.928;18.522;2022-10-31T00:46:05;51.33;;;32.38;;
22320;SDS011;11328;53.928;18.522;2022-10-31T00:48:32;50.60;;;33.00;;
22320;SDS011;11328;53.928;18.522;2022-10-31T00:50:59;47.00;;;31.00;;
22320;SDS011;11328;53.928;18.522;2022-10-31T00:53:26;52.90;;;32.08;;
22320;SDS011;11328;53.928;18.522;2022-10-31T00:55:53;51.30;;;31.55;;
22320;SDS011;11328;53.928;18.522;2022-10-31T00:58:19;46.58;;;30.50;;
22320;SDS011;11328;53.928;18.522;2022-10-31T01:00:49;51.58;;;31.17;;
22320;SDS011;11328;53.928;18.522;2022-10-31T01:03:25;47.40;;;32.05;;
22320;SDS011;11328;53.928;18.522;2022-10-31T01:05:59;47.20;;;30.92;;
22320;SDS011;11328;53.928;18.522;2022-10-31T01:08:33;46.05;;;30.40;;
22320;SDS011;11328;53.928;18.522;2022-10-31T01:13:38;50.00;;;30.30;;
22320;SDS011;11328;53.928;18.522;2022-10-31T01:16:07;47.65;;;29.95;;
22320;SDS011;11328;53.928;18.522;2022-10-31T01:18:37;44.50;;;28.85;;
22320;SDS011;11328;53.928;18.522;2022-10-31T01:21:08;51.53;;;29.90;;
22320;SDS011;11328;53.928;18.522;2022-10-31T01:23:39;54.72;;;30.45;;
22320;SDS011;11328;53.928;18.522;2022-10-31T01:29:03;54.88;;;29.30;;
22320;SDS011;11328;53.928;18.522;2022-10-31T01:31:35;52.38;;;30.13;;
22320;SDS011;11328;53.928;18.522;2022-10-31T01:34:05;63.70;;;30.73;;
22320;SDS011;11328;53.928;18.522;2022-10-31T01:36:34;50.65;;;28.75;;
22320;SDS011;11328;53.928;18.522;2022-10-31T01:39:04;63.42;;;30.65;;
22320;SDS011;11328;53.928;18.522;2022-10-31T01:41:42;66.53;;;31.85;;
22320;SDS011;11328;53.928;18.522;2022-10-31T01:46:43;69.68;;;30.55;;
22320;SDS011;11328;53.928;18.522;2022-10-31T01:49:24;72.25;;;31.55;;
22320;SDS011;11328;53.928;18.522;2022-10-31T01:52:03;65.70;;;30.20;;
22320;SDS011;11328;53.928;18.522;2022-10-31T01:54:46;65.30;;;31.25;;
22320;SDS011;11328;53.928;18.522;2022-10-31T01:57:20;57.05;;;31.17;;
22320;SDS011;11328;53.928;18.522;2022-10-31T01:59:49;69.68;;;31.23;;
22320;SDS011;11328;53.928;18.522;2022-10-31T02:02:22;97.80;;;31.63;;
22320;SDS011;11328;53.928;18.522;2022-10-31T02:04:51;79.32;;;31.05;;
22320;SDS011;11328;53.928;18.522;2022-10-31T02:07:27;70.68;;;32.13;;
22320;SDS011;11328;53.928;18.522;2022-10-31T02:10:21;90.57;;;31.08;;
22320;SDS011;11328;53.928;18.522;2022-10-31T02:12:50;112.20;;;31.83;;
22320;SDS011;11328;53.928;18.522;2022-10-31T02:15:21;130.32;;;31.50;;
22320;SDS011;11328;53.928;18.522;2022-10-31T02:17:49;71.50;;;31.30;;
22320;SDS011;11328;53.928;18.522;2022-10-31T02:20:17;77.57;;;32.00;;
22320;SDS011;11328;53.928;18.522;2022-10-31T02:25:55;73.38;;;31.70;;
22320;SDS011;11328;53.928;18.522;2022-10-31T02:32:03;60.13;;;29.17;;
22320;SDS011;11328;53.928;18.522;2022-10-31T02:37:49;63.63;;;30.48;;
22320;SDS011;11328;53.928;18.522;2022-10-31T02:40:29;70.60;;;31.23;;
22320;SDS011;11328;53.928;18.522;2022-10-31T02:43:40;73.32;;;30.17;;
22320;SDS011;11328;53.928;18.522;2022-10-31T02:46:47;60.75;;;29.17;;
22320;SDS011;11328;53.928;18.522;2022-10-31T02:52:20;73.80;;;30.75;;
22320;SDS011;11328;53.928;18.522;2022-10-31T02:54:56;64.82;;;32.78;;
22320;SDS011;11328;53.928;18.522;2022-10-31T02:57:24;78.22;;;33.65;;
22320;SDS011;11328;53.928;18.522;2022-10-31T03:00:00;111.32;;;33.22;;
22320;SDS011;11328;53.928;18.522;2022-10-31T03:10:58;89.30;;;31.48;;
22320;SDS011;11328;53.928;18.522;2022-10-31T03:19:28;64.40;;;31.02;;
22320;SDS011;11328;53.928;18.522;2022-10-31T03:22:04;70.18;;;31.55;;
22320;SDS011;11328;53.928;18.522;2022-10-31T03:24:47;78.53;;;31.35;;
22320;SDS011;11328;53.928;18.522;2022-10-31T03:27:16;104.03;;;30.80;;
22320;SDS011;11328;53.928;18.522;2022-10-31T03:29:50;65.65;;;30.35;;
22320;SDS011;11328;53.928;18.522;2022-10-31T03:35:08;74.47;;;30.98;;
22320;SDS011;11328;53.928;18.522;2022-10-31T03:37:37;76.93;;;31.88;;
22320;SDS011;11328;53.928;18.522;2022-10-31T03:40:08;81.28;;;32.65;;
22320;SDS011;11328;53.928;18.522;2022-10-31T03:42:40;63.05;;;32.33;;
22320;SDS011;11328;53.928;18.522;2022-10-31T03:45:15;59.53;;;31.50;;
22320;SDS011;11328;53.928;18.522;2022-10-31T03:47:52;73.43;;;32.72;;
22320;SDS011;11328;53.928;18.522;2022-10-31T03:50:21;83.10;;;33.20;;
22320;SDS011;11328;53.928;18.522;2022-10-31T03:52:58;74.20;;;33.80;;
22320;SDS011;11328;53.928;18.522;2022-10-31T03:55:39;87.25;;;33.40;;
22320;SDS011;11328;53.928;18.522;2022-10-31T03:58:18;74.97;;;32.83;;
22320;SDS011;11328;53.928;18.522;2022-10-31T04:00:53;87.40;;;34.83;;
22320;SDS011;11328;53.928;18.522;2022-10-31T04:03:25;75.13;;;33.42;;
22320;SDS011;11328;53.928;18.522;2022-10-31T04:05:58;97.50;;;31.95;;
22320;SDS011;11328;53.928;18.522;2022-10-31T04:08:32;94.95;;;31.42;;
22320;SDS011;11328;53.928;18.522;2022-10-31T04:11:06;64.40;;;31.73;;
22320;SDS011;11328;53.928;18.522;2022-10-31T04:13:38;90.72;;;31.45;;
22320;SDS011;11328;53.928;18.522;2022-10-31T04:16:08;80.63;;;32.05;;
22320;SDS011;11328;53.928;18.522;2022-10-31T04:18:42;166.93;;;33.17;;
22320;SDS011;11328;53.928;18.522;2022-10-31T04:21:10;92.38;;;32.90;;
22320;SDS011;11328;53.928;18.522;2022-10-31T04:23:37;204.52;;;33.17;;
22320;SDS011;11328;53.928;18.522;2022-10-31T04:26:04;127.88;;;33.60;;
22320;SDS011;11328;53.928;18.522;2022-10-31T04:28:31;88.07;;;32.03;;
22320;SDS011;11328;53.928;18.522;2022-10-31T04:30:59;103.40;;;34.42;;
22320;SDS011;11328;53.928;18.522;2022-10-31T04:33:26;84.45;;;34.35;;
22320;SDS011;11328;53.928;18.522;2022-10-31T04:35:54;129.07;;;32.65;;
22320;SDS011;11328;53.928;18.522;2022-10-31T04:38:20;150.93;;;35.38;;
22320;SDS011;11328;53.928;18.522;2022-10-31T04:40:47;205.18;;;35.88;;
22320;SDS011;11328;53.928;18.522;2022-10-31T04:43:14;154.73;;;35.10;;
22320;SDS011;11328;53.928;18.522;2022-10-31T04:45:41;109.68;;;35.33;;
22320;SDS011;11328;53.928;18.522;2022-10-31T04:48:08;189.20;;;35.72;;
22320;SDS011;11328;53.928;18.522;2022-10-31T04:50:35;124.07;;;35.25;;
22320;SDS011;11328;53.928;18.522;2022-10-31T04:53:02;137.85;;;35.90;;
22320;SDS011;11328;53.928;18.522;2022-10-31T04:55:29;116.88;;;36.33;;
22320;SDS011;11328;53.928;18.522;2022-10-31T04:57:56;184.55;;;35.90;;
22320;SDS011;11328;53.928;18.522;2022-10-31T05:00:24;138.60;;;35.00;;
22320;SDS011;11328;53.928;18.522;2022-10-31T05:02:52;87.15;;;34.58;;
22320;SDS011;11328;53.928;18.522;2022-10-31T05:05:23;156.02;;;36.42;;
22320;SDS011;11328;53.928;18.522;2022-10-31T05:07:53;128.30;;;34.45;;
22320;SDS011;11328;53.928;18.522;2022-10-31T05:10:22;85.78;;;33.47;;
22320;SDS011;11328;53.928;18.522;2022-10-31T05:12:56;196.48;;;34.13;;
22320;SDS011;11328;53.928;18.522;2022-10-31T05:15:26;70.93;;;32.25;;
22320;SDS011;11328;53.928;18.522;2022-10-31T05:17:54;137.00;;;33.00;;
22320;SDS011;11328;53.928;18.522;2022-10-31T05:20:23;98.10;;;33.33;;
22320;SDS011;11328;53.928;18.522;2022-10-31T05:22:55;101.30;;;32.67;;
22320;SDS011;11328;53.928;18.522;2022-10-31T05:25:24;92.57;;;33.38;;
22320;SDS011;11328;53.928;18.522;2022-10-31T05:27:54;70.93;;;32.17;;
22320;SDS011;11328;53.928;18.522;2022-10-31T05:30:27;58.53;;;32.83;;
22320;SDS011;11328;53.928;18.522;2022-10-31T05:32:56;96.63;;;33.00;;
22320;SDS011;11328;53.928;18.522;2022-10-31T05:35:25;77.47;;;32.40;;
22320;SDS011;11328;53.928;18.522;2022-10-31T05:37:56;250.13;;;35.35;;
22320;SDS011;11328;53.928;18.522;2022-10-31T05:40:24;100.97;;;32.65;;
22320;SDS011;11328;53.928;18.522;2022-10-31T05:42:52;93.47;;;32.97;;
22320;SDS011;11328;53.928;18.522;2022-10-31T05:45:22;78.53;;;32.58;;
22320;SDS011;11328;53.928;18.522;2022-10-31T05:47:53;98.32;;;32.40;;
22320;SDS011;11328;53.928;18.522;2022-10-31T05:50:23;88.80;;;33.10;;
22320;SDS011;11328;53.928;18.522;2022-10-31T05:53:10;154.10;;;32.70;;
22320;SDS011;11328;53.928;18.522;2022-10-31T05:55:37;62.03;;;32.78;;
22320;SDS011;11328;53.928;18.522;2022-10-31T05:58:05;79.25;;;33.80;;
22320;SDS011;11328;53.928;18.522;2022-10-31T06:00:32;108.22;;;32.40;;
22320;SDS011;11328;53.928;18.522;2022-10-31T06:03:02;126.15;;;33.60;;
22320;SDS011;11328;53.928;18.522;2022-10-31T06:05:32;68.10;;;32.30;;
22320;SDS011;11328;53.928;18.522;2022-10-31T06:07:59;108.38;;;32.85;;
22320;SDS011;11328;53.928;18.522;2022-10-31T06:10:27;68.95;;;32.38;;
22320;SDS011;11328;53.928;18.522;2022-10-31T06:12:54;61.60;;;32.53;;
22320;SDS011;11328;53.928;18.522;2022-10-31T06:15:21;77.55;;;33.20;;
22320;SDS011;11328;53.928;18.522;2022-10-31T06:18:00;80.05;;;37.38;;
22320;SDS011;11328;53.928;18.522;2022-10-31T06:20:32;109.22;;;37.70;;
22320;SDS011;11328;53.928;18.522;2022-10-31T06:23:00;90.88;;;36.85;;
22320;SDS011;11328;53.928;18.522;2022-10-31T06:25:28;76.60;;;37.90;;
22320;SDS011;11328;53.928;18.522;2022-10-31T06:27:55;73.47;;;38.13;;
22320;SDS011;11328;53.928;18.522;2022-10-31T06:30:23;99.80;;;37.97;;
22320;SDS011;11328;53.928;18.522;2022-10-31T06:32:50;83.25;;;37.08;;
22320;SDS011;11328;53.928;18.522;2022-10-31T06:35:18;90.53;;;38.03;;
22320;SDS011;11328;53.928;18.522;2022-10-31T06:37:52;108.93;;;37.50;;
22320;SDS011;11328;53.928;18.522;2022-10-31T06:40:20;101.18;;;38.40;;
22320;SDS011;11328;53.928;18.522;2022-10-31T06:42:47;75.55;;;39.55;;
22320;SDS011;11328;53.928;18.522;2022-10-31T06:45:23;136.38;;;38.65;;
22320;SDS011;11328;53.928;18.522;2022-10-31T06:47:51;88.57;;;38.65;;
22320;SDS011;11328;53.928;18.522;2022-10-31T06:50:42;133.82;;;39.97;;
22320;SDS011;11328;53.928;18.522;2022-10-31T06:53:09;141.10;;;40.15;;
22320;SDS011;11328;53.928;18.522;2022-10-31T06:55:41;223.90;;;41.30;;
22320;SDS011;11328;53.928;18.522;2022-10-31T06:58:08;149.07;;;41.35;;
22320;SDS011;11328;53.928;18.522;2022-10-31T07:00:37;110.95;;;40.83;;
22320;SDS011;11328;53.928;18.522;2022-10-31T07:03:09;132.70;;;41.05;;
22320;SDS011;11328;53.928;18.522;2022-10-31T07:05:38;142.95;;;41.03;;
22320;SDS011;11328;53.928;18.522;2022-10-31T07:08:07;99.30;;;41.40;;
22320;SDS011;11328;53.928;18.522;2022-10-31T07:10:38;109.60;;;40.95;;
22320;SDS011;11328;53.928;18.522;2022-10-31T07:13:09;150.60;;;40.40;;
22320;SDS011;11328;53.928;18.522;2022-10-31T07:15:40;89.78;;;39.13;;
22320;SDS011;11328;53.928;18.522;2022-10-31T07:18:09;99.18;;;37.47;;
22320;SDS011;11328;53.928;18.522;2022-10-31T07:20:38;111.72;;;38.53;;
22320;SDS011;11328;53.928;18.522;2022-10-31T07:23:05;94.88;;;39.08;;
22320;SDS011;11328;53.928;18.522;2022-10-31T07:25:32;85.95;;;39.10;;
22320;SDS011;11328;53.928;18.522;2022-10-31T07:27:59;98.70;;;38.83;;
22320;SDS011;11328;53.928;18.522;2022-10-31T07:30:27;78.57;;;39.20;;
22320;SDS011;11328;53.928;18.522;2022-10-31T07:32:54;92.28;;;37.63;;
22320;SDS011;11328;53.928;18.522;2022-10-31T07:35:23;93.63;;;38.72;;
22320;SDS011;11328;53.928;18.522;2022-10-31T07:37:52;107.93;;;39.95;;
22320;SDS011;11328;53.928;18.522;2022-10-31T07:40:24;78.80;;;38.25;;
22320;SDS011;11328;53.928;18.522;2022-10-31T07:42:52;75.20;;;36.60;;
22320;SDS011;11328;53.928;18.522;2022-10-31T07:45:20;79.97;;;36.50;;
22320;SDS011;11328;53.928;18.522;2022-10-31T07:47:48;106.57;;;40.08;;
22320;SDS011;11328;53.928;18.522;2022-10-31T07:50:21;81.95;;;36.70;;
22320;SDS011;11328;53.928;18.522;2022-10-31T07:53:01;75.28;;;36.42;;
22320;SDS011;11328;53.928;18.522;2022-10-31T07:55:31;75.35;;;34.03;;
22320;SDS011;11328;53.928;18.522;2022-10-31T07:58:03;70.07;;;32.63;;
22320;SDS011;11328;53.928;18.522;2022-10-31T08:00:48;96.05;;;34.30;;
22320;SDS011;11328;53.928;18.522;2022-10-31T08:03:16;81.00;;;32.15;;
22320;SDS011;11328;53.928;18.522;2022-10-31T08:05:45;73.65;;;32.45;;
22320;SDS011;11328;53.928;18.522;2022-10-31T08:08:12;68.75;;;32.72;;
22320;SDS011;11328;53.928;18.522;2022-10-31T08:10:40;104.30;;;34.63;;
22320;SDS011;11328;53.928;18.522;2022-10-31T08:13:09;114.38;;;35.08;;
22320;SDS011;11328;53.928;18.522;2022-10-31T08:15:39;78.55;;;35.60;;
22320;SDS011;11328;53.928;18.522;2022-10-31T08:18:14;67.63;;;38.08;;
22320;SDS011;11328;53.928;18.522;2022-10-31T08:20:42;94.10;;;42.40;;
22320;SDS011;11328;53.928;18.522;2022-10-31T08:23:11;110.15;;;53.65;;
22320;SDS011;11328;53.928;18.522;2022-10-31T08:25:39;99.78;;;39.63;;
22320;SDS011;11328;53.928;18.522;2022-10-31T08:28:08;114.22;;;37.20;;
22320;SDS011;11328;53.928;18.522;2022-10-31T08:30:37;118.97;;;34.92;;
22320;SDS011;11328;53.928;18.522;2022-10-31T08:33:10;85.88;;;33.67;;
22320;SDS011;11328;53.928;18.522;2022-10-31T08:35:40;92.22;;;35.08;;
22320;SDS011;11328;53.928;18.522;2022-10-31T08:38:09;83.35;;;35.60;;
22320;SDS011;11328;53.928;18.522;2022-10-31T08:40:38;106.50;;;37.55;;
22320;SDS011;11328;53.928;18.522;2022-10-31T08:43:06;83.35;;;37.20;;
22320;SDS011;11328;53.928;18.522;2022-10-31T08:45:40;78.97;;;36.97;;
22320;SDS011;11328;53.928;18.522;2022-10-31T08:48:12;73.55;;;32.70;;
22320;SDS011;11328;53.928;18.522;2022-10-31T08:50:41;85.22;;;34.45;;
22320;SDS011;11328;53.928;18.522;2022-10-31T08:53:13;108.38;;;34.15;;
22320;SDS011;11328;53.928;18.522;2022-10-31T08:55:45;86.00;;;33.40;;
22320;SDS011;11328;53.928;18.522;2022-10-31T08:58:14;105.60;;;35.90;;
22320;SDS011;11328;53.928;18.522;2022-10-31T09:00:44;111.15;;;36.00;;
22320;SDS011;11328;53.928;18.522;2022-10-31T09:03:14;108.13;;;37.03;;
22320;SDS011;11328;53.928;18.522;2022-10-31T09:05:50;94.82;;;35.80;;
22320;SDS011;11328;53.928;18.522;2022-10-31T09:08:22;95.77;;;39.57;;
22320;SDS011;11328;53.928;18.522;2022-10-31T09:10:50;93.00;;;38.13;;
22320;SDS011;11328;53.928;18.522;2022-10-31T09:13:23;94.22;;;36.33;;
22320;SDS011;11328;53.928;18.522;2022-10-31T09:15:53;110.85;;;34.63;;
22320;SDS011;11328;53.928;18.522;2022-10-31T09:18:23;113.75;;;34.65;;
22320;SDS011;11328;53.928;18.522;2022-10-31T09:20:54;119.75;;;35.05;;
22320;SDS011;11328;53.928;18.522;2022-10-31T09:23:25;93.03;;;33.15;;
22320;SDS011;11328;53.928;18.522;2022-10-31T09:25:52;91.03;;;34.45;;
22320;SDS011;11328;53.928;18.522;2022-10-31T09:28:21;89.88;;;33.00;;
22320;SDS011;11328;53.928;18.522;2022-10-31T09:30:51;81.50;;;33.88;;
22320;SDS011;11328;53.928;18.522;2022-10-31T09:33:20;108.50;;;34.65;;
22320;SDS011;11328;53.928;18.522;2022-10-31T09:35:47;88.80;;;32.53;;
22320;SDS011;11328;53.928;18.522;2022-10-31T09:38:18;110.95;;;35.58;;
22320;SDS011;11328;53.928;18.522;2022-10-31T09:46:35;92.93;;;33.78;;
22320;SDS011;11328;53.928;18.522;2022-10-31T09:52:27;113.30;;;35.08;;
22320;SDS011;11328;53.928;18.522;2022-10-31T09:57:50;92.45;;;30.98;;
22320;SDS011;11328;53.928;18.522;2022-10-31T10:00:18;81.88;;;32.10;;
22320;SDS011;11328;53.928;18.522;2022-10-31T10:02:53;97.15;;;31.92;;
22320;SDS011;11328;53.928;18.522;2022-10-31T10:05:37;83.72;;;31.33;;
22320;SDS011;11328;53.928;18.522;2022-10-31T10:08:19;80.22;;;30.67;;
22320;SDS011;11328;53.928;18.522;2022-10-31T10:11:17;96.00;;;42.53;;
22320;SDS011;11328;53.928;18.522;2022-10-31T10:17:13;81.80;;;32.38;;
22320;SDS011;11328;53.928;18.522;2022-10-31T10:26:20;69.47;;;29.60;;
22320;SDS011;11328;53.928;18.522;2022-10-31T10:29:27;65.22;;;31.15;;
22320;SDS011;11328;53.928;18.522;2022-10-31T10:32:11;67.82;;;32.13;;
22320;SDS011;11328;53.928;18.522;2022-10-31T10:34:51;69.38;;;29.67;;
22320;SDS011;11328;53.928;18.522;2022-10-31T10:37:36;61.55;;;29.83;;
22320;SDS011;11328;53.928;18.522;2022-10-31T10:45:51;65.10;;;26.95;;
22320;SDS011;11328;53.928;18.522;2022-10-31T10:48:46;60.70;;;27.08;;
22320;SDS011;11328;53.928;18.522;2022-10-31T10:51:22;63.42;;;29.05;;
22320;SDS011;11328;53.928;18.522;2022-10-31T11:00:01;61.20;;;26.50;;
22320;SDS011;11328;53.928;18.522;2022-10-31T11:02:45;60.75;;;26.38;;
22320;SDS011;11328;53.928;18.522;2022-10-31T11:08:02;61.72;;;25.52;;
22320;SDS011;11328;53.928;18.522;2022-10-31T11:10:30;52.08;;;24.83;;
22320;SDS011;11328;53.928;18.522;2022-10-31T11:15:37;51.30;;;23.77;;
22320;SDS011;11328;53.928;18.522;2022-10-31T11:18:42;46.40;;;24.05;;
22320;SDS011;11328;53.928;18.522;2022-10-31T11:21:20;47.85;;;23.17;;
22320;SDS011;11328;53.928;18.522;2022-10-31T11:24:03;48.33;;;23.73;;
22320;SDS011;11328;53.928;18.522;2022-10-31T11:26:42;52.97;;;24.52;;
22320;SDS011;11328;53.928;18.522;2022-10-31T11:29:22;54.50;;;24.35;;
22320;SDS011;11328;53.928;18.522;2022-10-31T11:31:52;54.83;;;24.58;;
22320;SDS011;11328;53.928;18.522;2022-10-31T11:39:52;76.18;;;25.00;;
22320;SDS011;11328;53.928;18.522;2022-10-31T11:42:35;55.47;;;25.92;;
22320;SDS011;11328;53.928;18.522;2022-10-31T11:45:12;58.05;;;24.30;;
22320;SDS011;11328;53.928;18.522;2022-10-31T11:47:46;70.78;;;26.13;;
22320;SDS011;11328;53.928;18.522;2022-10-31T11:50:26;83.38;;;25.00;;
22320;SDS011;11328;53.928;18.522;2022-10-31T11:53:03;59.83;;;25.58;;
22320;SDS011;11328;53.928;18.522;2022-10-31T11:55:41;57.55;;;24.92;;
22320;SDS011;11328;53.928;18.522;2022-10-31T11:58:41;75.63;;;26.52;;
22320;SDS011;11328;53.928;18.522;2022-10-31T12:01:01;55.38;;;25.15;;
22320;SDS011;11328;53.928;18.522;2022-10-31T12:03:42;74.30;;;27.63;;
22320;SDS011;11328;53.928;18.522;2022-10-31T12:06:29;69.90;;;28.45;;
22320;SDS011;11328;53.928;18.522;2022-10-31T12:29:29;67.25;;;30.30;;
22320;SDS011;11328;53.928;18.522;2022-10-31T13:01:15;73.07;;;33.00;;
22320;SDS011;11328;53.928;18.522;2022-10-31T13:04:12;68.25;;;35.35;;
22320;SDS011;11328;53.928;18.522;2022-10-31T13:06:59;67.47;;;29.75;;
22320;SDS011;11328;53.928;18.522;2022-10-31T13:09:46;55.55;;;29.17;;
22320;SDS011;11328;53.928;18.522;2022-10-31T13:12:27;58.58;;;28.95;;
22320;SDS011;11328;53.928;18.522;2022-10-31T13:15:11;55.20;;;29.63;;
22320;SDS011;11328;53.928;18.522;2022-10-31T13:18:10;51.38;;;28.40;;
22320;SDS011;11328;53.928;18.522;2022-10-31T13:20:49;48.42;;;26.40;;
22320;SDS011;11328;53.928;18.522;2022-10-31T13:23:31;50.72;;;27.52;;
22320;SDS011;11328;53.928;18.522;2022-10-31T13:26:36;50.35;;;27.17;;
22320;SDS011;11328;53.928;18.522;2022-10-31T13:32:54;47.53;;;25.67;;
22320;SDS011;11328;53.928;18.522;2022-10-31T13:35:40;46.40;;;26.13;;
22320;SDS011;11328;53.928;18.522;2022-10-31T13:41:01;45.97;;;26.38;;
22320;SDS011;11328;53.928;18.522;2022-10-31T13:43:57;50.53;;;26.90;;
22320;SDS011;11328;53.928;18.522;2022-10-31T13:46:35;48.22;;;26.58;;
22320;SDS011;11328;53.928;18.522;2022-10-31T13:52:11;57.08;;;31.63;;
22320;SDS011;11328;53.928;18.522;2022-10-31T13:57:18;45.25;;;25.10;;
22320;SDS011;11328;53.928;18.522;2022-10-31T14:02:48;40.97;;;22.65;;
22320;SDS011;11328;53.928;18.522;2022-10-31T14:08:01;39.67;;;22.95;;
22320;SDS011;11328;53.928;18.522;2022-10-31T14:10:35;35.17;;;22.25;;
22320;SDS011;11328;53.928;18.522;2022-10-31T14:13:07;42.90;;;23.35;;
22320;SDS011;11328;53.928;18.522;2022-10-31T14:16:00;36.58;;;21.95;;
22320;SDS011;11328;53.928;18.522;2022-10-31T14:21:27;39.58;;;22.02;;
22320;SDS011;11328;53.928;18.522;2022-10-31T14:23:57;39.28;;;22.52;;
22320;SDS011;11328;53.928;18.522;2022-10-31T14:28:59;40.33;;;23.17;;
22320;SDS011;11328;53.928;18.522;2022-10-31T14:34:42;41.08;;;23.83;;
22320;SDS011;11328;53.928;18.522;2022-10-31T14:43:34;42.88;;;24.75;;
22320;SDS011;11328;53.928;18.522;2022-10-31T14:46:43;47.92;;;24.83;;
22320;SDS011;11328;53.928;18.522;2022-10-31T14:52:35;38.80;;;22.33;;
22320;SDS011;11328;53.928;18.522;2022-10-31T14:55:05;39.75;;;23.50;;
22320;SDS011;11328;53.928;18.522;2022-10-31T14:57:38;38.65;;;22.83;;
22320;SDS011;11328;53.928;18.522;2022-10-31T15:00:23;38.88;;;23.10;;
22320;SDS011;11328;53.928;18.522;2022-10-31T15:03:00;47.53;;;24.67;;
22320;SDS011;11328;53.928;18.522;2022-10-31T15:05:42;44.03;;;25.10;;
22320;SDS011;11328;53.928;18.522;2022-10-31T15:08:26;43.95;;;22.92;;
22320;SDS011;11328;53.928;18.522;2022-10-31T15:11:11;40.40;;;23.58;;
22320;SDS011;11328;53.928;18.522;2022-10-31T15:13:41;42.65;;;23.50;;
22320;SDS011;11328;53.928;18.522;2022-10-31T15:16:36;47.28;;;24.45;;
22320;SDS011;11328;53.928;18.522;2022-10-31T15:19:12;47.20;;;25.67;;
22320;SDS011;11328;53.928;18.522;2022-10-31T15:21:49;43.50;;;24.80;;
22320;SDS011;11328;53.928;18.522;2022-10-31T15:24:19;51.47;;;26.88;;
22320;SDS011;11328;53.928;18.522;2022-10-31T15:26:49;46.60;;;26.75;;
22320;SDS011;11328;53.928;18.522;2022-10-31T15:29:20;50.60;;;24.90;;
22320;SDS011;11328;53.928;18.522;2022-10-31T15:34:39;44.17;;;23.95;;
22320;SDS011;11328;53.928;18.522;2022-10-31T15:37:10;40.22;;;24.10;;
22320;SDS011;11328;53.928;18.522;2022-10-31T15:39:43;43.92;;;25.55;;
22320;SDS011;11328;53.928;18.522;2022-10-31T15:44:49;47.53;;;26.10;;
22320;SDS011;11328;53.928;18.522;2022-10-31T15:47:38;44.75;;;25.85;;
22320;SDS011;11328;53.928;18.522;2022-10-31T15:50:20;48.92;;;26.70;;
22320;SDS011;11328;53.928;18.522;2022-10-31T15:53:13;49.80;;;25.17;;
22320;SDS011;11328;53.928;18.522;2022-10-31T15:56:12;53.45;;;27.55;;
22320;SDS011;11328;53.928;18.522;2022-10-31T15:58:48;47.25;;;25.10;;
22320;SDS011;11328;53.928;18.522;2022-10-31T16:04:00;51.28;;;24.83;;
22320;SDS011;11328;53.928;18.522;2022-10-31T16:06:33;49.30;;;25.20;;
22320;SDS011;11328;53.928;18.522;2022-10-31T16:09:02;47.63;;;24.58;;
22320;SDS011;11328;53.928;18.522;2022-10-31T16:11:47;49.20;;;24.25;;
22320;SDS011;11328;53.928;18.522;2022-10-31T16:14:16;47.03;;;23.00;;
22320;SDS011;11328;53.928;18.522;2022-10-31T16:16:52;44.00;;;23.48;;
22320;SDS011;11328;53.928;18.522;2022-10-31T16:19:33;44.22;;;24.30;;
22320;SDS011;11328;53.928;18.522;2022-10-31T16:22:06;46.28;;;24.60;;
22320;SDS011;11328;53.928;18.522;2022-10-31T16:24:46;41.35;;;22.55;;
22320;SDS011;11328;53.928;18.522;2022-10-31T16:27:32;44.45;;;22.65;;
22320;SDS011;11328;53.928;18.522;2022-10-31T16:30:23;41.65;;;21.90;;
22320;SDS011;11328;53.928;18.522;2022-10-31T16:33:29;42.22;;;23.38;;
22320;SDS011;11328;53.928;18.522;2022-10-31T16:39:01;49.15;;;24.02;;
22320;SDS011;11328;53.928;18.522;2022-10-31T16:41:29;39.42;;;22.35;;
22320;SDS011;11328;53.928;18.522;2022-10-31T16:44:01;46.40;;;26.95;;
22320;SDS011;11328;53.928;18.522;2022-10-31T16:46:31;81.85;;;48.92;;
22320;SDS011;11328;53.928;18.522;2022-10-31T16:48:58;80.75;;;49.22;;
22320;SDS011;11328;53.928;18.522;2022-10-31T16:51:25;85.97;;;56.40;;
22320;SDS011;11328;53.928;18.522;2022-10-31T16:53:52;82.38;;;61.33;;
22320;SDS011;11328;53.928;18.522;2022-10-31T16:56:30;72.20;;;47.63;;
22320;SDS011;11328;53.928;18.522;2022-10-31T16:59:03;76.27;;;51.37;;
22320;SDS011;11328;53.928;18.522;2022-10-31T17:01:41;69.93;;;46.15;;
22320;SDS011;11328;53.928;18.522;2022-10-31T17:04:15;82.43;;;52.38;;
22320;SDS011;11328;53.928;18.522;2022-10-31T17:06:42;109.13;;;60.60;;
22320;SDS011;11328;53.928;18.522;2022-10-31T17:09:09;87.50;;;53.92;;
22320;SDS011;11328;53.928;18.522;2022-10-31T17:11:36;62.80;;;42.60;;
22320;SDS011;11328;53.928;18.522;2022-10-31T17:14:15;56.30;;;36.63;;
22320;SDS011;11328;53.928;18.522;2022-10-31T17:16:43;52.65;;;36.15;;
22320;SDS011;11328;53.928;18.522;2022-10-31T17:19:11;42.22;;;29.13;;
22320;SDS011;11328;53.928;18.522;2022-10-31T17:21:38;44.25;;;28.27;;
22320;SDS011;11328;53.928;18.522;2022-10-31T17:24:08;45.30;;;29.75;;
22320;SDS011;11328;53.928;18.522;2022-10-31T17:26:39;41.28;;;25.45;;
22320;SDS011;11328;53.928;18.522;2022-10-31T17:29:07;38.20;;;22.95;;
22320;SDS011;11328;53.928;18.522;2022-10-31T17:31:34;34.17;;;22.08;;
22320;SDS011;11328;53.928;18.522;2022-10-31T17:34:04;68.97;;;50.83;;
22320;SDS011;11328;53.928;18.522;2022-10-31T17:36:38;62.45;;;46.70;;
22320;SDS011;11328;53.928;18.522;2022-10-31T17:39:05;47.80;;;36.40;;
22320;SDS011;11328;53.928;18.522;2022-10-31T17:41:34;79.75;;;52.95;;